sensor_id;sensor_type;location;lat;lon;timestamp;pressure;altitude;pressure_sealevel;temperature;humidity
46456;BME280;32154;47.160;8.120;2022-08-30T00:03:07;96002.50;;;22.36;61.48
46456;BME280;32154;47.160;8.120;2022-08-30T00:08:13;95996.28;;;22.35;61.31
46456;BME280;32154;47.160;8.120;2022-08-30T00:13:35;95996.81;;;22.59;60.51
46456;BME280;32154;47.160;8.120;2022-08-30T00:18:56;95995.56;;;22.48;61.03
46456;BME280;32154;47.160;8.120;2022-08-30T00:23:58;95990.88;;;22.22;61.10
46456;BME280;32154;47.160;8.120;2022-08-30T00:29:01;95986.94;;;22.17;61.62
46456;BME280;32154;47.160;8.120;2022-08-30T00:34:03;95976.28;;;22.38;61.30
46456;BME280;32154;47.160;8.120;2022-08-30T00:39:24;95974.06;;;22.55;60.90
46456;BME280;32154;47.160;8.120;2022-08-30T00:44:26;95984.81;;;22.48;60.92
46456;BME280;32154;47.160;8.120;2022-08-30T00:49:29;95978.44;;;22.83;59.93
46456;BME280;32154;47.160;8.120;2022-08-30T00:54:32;95969.44;;;22.42;60.97
46456;BME280;32154;47.160;8.120;2022-08-30T00:59:37;95978.53;;;22.41;61.57
46456;BME280;32154;47.160;8.120;2022-08-30T01:04:41;95977.09;;;22.45;60.95
46456;BME280;32154;47.160;8.120;2022-08-30T01:09:44;95981.66;;;22.44;60.48
46456;BME280;32154;47.160;8.120;2022-08-30T01:15:08;95979.31;;;22.21;60.70
46456;BME280;32154;47.160;8.120;2022-08-30T01:20:23;95980.38;;;22.33;60.48
46456;BME280;32154;47.160;8.120;2022-08-30T01:25:29;95982.19;;;22.20;61.24
46456;BME280;32154;47.160;8.120;2022-08-30T01:30:50;95988.44;;;22.33;60.44
46456;BME280;32154;47.160;8.120;2022-08-30T01:35:58;95997.25;;;22.14;60.78
46456;BME280;32154;47.160;8.120;2022-08-30T01:41:12;96000.59;;;21.81;61.70
46456;BME280;32154;47.160;8.120;2022-08-30T01:46:40;95999.75;;;21.73;62.12
46456;BME280;32154;47.160;8.120;2022-08-30T01:51:43;96005.50;;;22.12;61.43
46456;BME280;32154;47.160;8.120;2022-08-30T01:56:46;96004.00;;;22.03;61.59
46456;BME280;32154;47.160;8.120;2022-08-30T02:01:48;95999.19;;;21.85;61.88
46456;BME280;32154;47.160;8.120;2022-08-30T02:06:50;96000.31;;;22.04;61.53
46456;BME280;32154;47.160;8.120;2022-08-30T02:11:52;95993.56;;;21.73;61.79
46456;BME280;32154;47.160;8.120;2022-08-30T02:17:14;95997.53;;;21.84;60.75
46456;BME280;32154;47.160;8.120;2022-08-30T02:22:19;95986.41;;;21.87;60.57
46456;BME280;32154;47.160;8.120;2022-08-30T02:27:21;95986.56;;;21.79;61.08
46456;BME280;32154;47.160;8.120;2022-08-30T02:32:23;95980.16;;;21.80;60.80
46456;BME280;32154;47.160;8.120;2022-08-30T02:37:46;95981.19;;;21.79;61.03
46456;BME280;32154;47.160;8.120;2022-08-30T02:43:07;95973.69;;;21.67;61.84
46456;BME280;32154;47.160;8.120;2022-08-30T02:48:28;95965.72;;;21.17;63.14
46456;BME280;32154;47.160;8.120;2022-08-30T02:53:30;95950.59;;;21.38;62.53
46456;BME280;32154;47.160;8.120;2022-08-30T02:58:32;95945.72;;;21.19;63.29
46456;BME280;32154;47.160;8.120;2022-08-30T03:03:52;95941.22;;;21.20;62.82
46456;BME280;32154;47.160;8.120;2022-08-30T03:08:55;95945.03;;;20.82;63.71
46456;BME280;32154;47.160;8.120;2022-08-30T03:13:57;95951.28;;;20.89;62.96
46456;BME280;32154;47.160;8.120;2022-08-30T03:19:18;95956.25;;;20.92;63.14
46456;BME280;32154;47.160;8.120;2022-08-30T03:24:20;95946.59;;;20.76;63.29
46456;BME280;32154;47.160;8.120;2022-08-30T03:29:41;95943.13;;;21.04;63.52
46456;BME280;32154;47.160;8.120;2022-08-30T03:34:43;95934.69;;;21.01;61.90
46456;BME280;32154;47.160;8.120;2022-08-30T03:39:46;95944.75;;;20.99;63.42
46456;BME280;32154;47.160;8.120;2022-08-30T03:44:52;95936.91;;;20.97;62.68
46456;BME280;32154;47.160;8.120;2022-08-30T03:50:14;95945.81;;;21.04;62.15
46456;BME280;32154;47.160;8.120;2022-08-30T03:55:35;95944.91;;;20.69;62.69
46456;BME280;32154;47.160;8.120;2022-08-30T04:00:37;95950.00;;;20.63;63.68
46456;BME280;32154;47.160;8.120;2022-08-30T04:05:39;95957.47;;;20.68;63.26
46456;BME280;32154;47.160;8.120;2022-08-30T04:11:00;95947.44;;;20.77;63.64
46456;BME280;32154;47.160;8.120;2022-08-30T04:16:24;95951.66;;;20.86;62.86
46456;BME280;32154;47.160;8.120;2022-08-30T04:21:27;95960.00;;;20.98;62.26
46456;BME280;32154;47.160;8.120;2022-08-30T04:26:29;95960.22;;;20.75;61.32
46456;BME280;32154;47.160;8.120;2022-08-30T04:31:49;95971.81;;;20.39;63.94
46456;BME280;32154;47.160;8.120;2022-08-30T04:37:11;95965.13;;;20.93;61.61
46456;BME280;32154;47.160;8.120;2022-08-30T04:42:32;95975.06;;;20.77;62.58
46456;BME280;32154;47.160;8.120;2022-08-30T04:47:54;95979.34;;;20.50;62.91
46456;BME280;32154;47.160;8.120;2022-08-30T04:52:59;95987.97;;;20.30;63.83
46456;BME280;32154;47.160;8.120;2022-08-30T04:58:19;96000.28;;;20.10;65.06
46456;BME280;32154;47.160;8.120;2022-08-30T05:03:40;95998.19;;;20.05;65.35
46456;BME280;32154;47.160;8.120;2022-08-30T05:08:43;96004.19;;;20.07;65.58
46456;BME280;32154;47.160;8.120;2022-08-30T05:13:47;96011.69;;;20.70;63.68
46456;BME280;32154;47.160;8.120;2022-08-30T05:18:50;96018.44;;;20.66;63.23
46456;BME280;32154;47.160;8.120;2022-08-30T05:23:55;96022.19;;;20.72;62.93
46456;BME280;32154;47.160;8.120;2022-08-30T05:28:57;96016.47;;;20.97;62.24
46456;BME280;32154;47.160;8.120;2022-08-30T05:34:00;96020.91;;;20.83;63.35
46456;BME280;32154;47.160;8.120;2022-08-30T05:39:07;96011.72;;;20.55;64.24
46456;BME280;32154;47.160;8.120;2022-08-30T05:44:28;96010.31;;;20.96;62.52
46456;BME280;32154;47.160;8.120;2022-08-30T05:49:49;96015.78;;;21.10;63.11
46456;BME280;32154;47.160;8.120;2022-08-30T05:55:11;96017.66;;;21.16;62.74
46456;BME280;32154;47.160;8.120;2022-08-30T06:00:17;96015.06;;;21.51;61.80
46456;BME280;32154;47.160;8.120;2022-08-30T06:05:38;96022.13;;;21.59;61.81
46456;BME280;32154;47.160;8.120;2022-08-30T06:10:43;96018.66;;;21.08;63.78
46456;BME280;32154;47.160;8.120;2022-08-30T06:16:04;96008.75;;;21.09;64.38
46456;BME280;32154;47.160;8.120;2022-08-30T06:21:06;96011.28;;;21.45;63.45
46456;BME280;32154;47.160;8.120;2022-08-30T06:26:15;96023.41;;;21.63;63.27
46456;BME280;32154;47.160;8.120;2022-08-30T06:31:19;96009.97;;;21.63;62.12
46456;BME280;32154;47.160;8.120;2022-08-30T06:36:24;96007.03;;;21.86;62.15
46456;BME280;32154;47.160;8.120;2022-08-30T06:41:45;96001.56;;;22.08;61.55
46456;BME280;32154;47.160;8.120;2022-08-30T06:47:06;96001.75;;;22.55;60.40
46456;BME280;32154;47.160;8.120;2022-08-30T06:52:09;95993.94;;;22.74;59.39
46456;BME280;32154;47.160;8.120;2022-08-30T06:57:30;95988.34;;;22.89;59.92
46456;BME280;32154;47.160;8.120;2022-08-30T07:02:32;95993.53;;;22.84;59.58
46456;BME280;32154;47.160;8.120;2022-08-30T07:07:53;95988.16;;;23.24;59.65
46456;BME280;32154;47.160;8.120;2022-08-30T07:13:15;95990.25;;;23.49;59.49
46456;BME280;32154;47.160;8.120;2022-08-30T07:18:35;95998.50;;;23.61;59.56
46456;BME280;32154;47.160;8.120;2022-08-30T07:23:39;95996.22;;;24.31;57.05
46456;BME280;32154;47.160;8.120;2022-08-30T07:29:01;95985.06;;;24.27;58.04
46456;BME280;32154;47.160;8.120;2022-08-30T07:34:05;95988.84;;;24.97;57.95
46456;BME280;32154;47.160;8.120;2022-08-30T07:39:07;95995.97;;;25.10;57.38
46456;BME280;32154;47.160;8.120;2022-08-30T07:44:28;95990.69;;;26.10;56.27
46456;BME280;32154;47.160;8.120;2022-08-30T07:49:31;95996.06;;;26.78;52.67
46456;BME280;32154;47.160;8.120;2022-08-30T07:54:33;95984.38;;;27.08;51.33
46456;BME280;32154;47.160;8.120;2022-08-30T07:59:35;95987.34;;;27.78;48.09
46456;BME280;32154;47.160;8.120;2022-08-30T08:04:37;95981.25;;;28.94;47.54
46456;BME280;32154;47.160;8.120;2022-08-30T08:09:40;95989.66;;;28.92;44.99
46456;BME280;32154;47.160;8.120;2022-08-30T08:14:43;95988.41;;;28.54;45.36
46456;BME280;32154;47.160;8.120;2022-08-30T08:20:04;95992.66;;;28.79;45.19
46456;BME280;32154;47.160;8.120;2022-08-30T08:25:25;95992.03;;;29.06;44.50
46456;BME280;32154;47.160;8.120;2022-08-30T08:30:33;95998.63;;;29.10;42.83
46456;BME280;32154;47.160;8.120;2022-08-30T08:35:36;95999.47;;;30.95;39.34
46456;BME280;32154;47.160;8.120;2022-08-30T08:46:43;95995.63;;;30.64;40.25
46456;BME280;32154;47.160;8.120;2022-08-30T08:52:12;95995.59;;;29.57;43.12
46456;BME280;32154;47.160;8.120;2022-08-30T08:57:16;96002.13;;;30.18;42.48
46456;BME280;32154;47.160;8.120;2022-08-30T09:02:50;95994.16;;;30.56;39.69
46456;BME280;32154;47.160;8.120;2022-08-30T09:08:06;95997.28;;;30.92;39.61
46456;BME280;32154;47.160;8.120;2022-08-30T09:13:19;95989.41;;;30.96;40.08
46456;BME280;32154;47.160;8.120;2022-08-30T09:18:44;95991.34;;;31.66;37.81
46456;BME280;32154;47.160;8.120;2022-08-30T09:24:14;95974.63;;;31.52;39.35
46456;BME280;32154;47.160;8.120;2022-08-30T09:29:23;95974.66;;;32.05;37.65
46456;BME280;32154;47.160;8.120;2022-08-30T09:34:43;95972.97;;;31.94;37.73
46456;BME280;32154;47.160;8.120;2022-08-30T09:40:11;95963.16;;;32.77;36.37
46456;BME280;32154;47.160;8.120;2022-08-30T09:45:38;95962.28;;;32.46;38.03
46456;BME280;32154;47.160;8.120;2022-08-30T09:56:47;95955.81;;;33.76;35.31
46456;BME280;32154;47.160;8.120;2022-08-30T10:07:20;95957.38;;;35.09;33.28
46456;BME280;32154;47.160;8.120;2022-08-30T10:13:01;95954.22;;;35.26;33.98
46456;BME280;32154;47.160;8.120;2022-08-30T10:23:35;95948.44;;;35.63;31.40
46456;BME280;32154;47.160;8.120;2022-08-30T10:29:13;95936.75;;;34.82;32.55
46456;BME280;32154;47.160;8.120;2022-08-30T10:34:24;95942.44;;;35.26;32.17
46456;BME280;32154;47.160;8.120;2022-08-30T10:40:03;95942.41;;;34.51;33.19
46456;BME280;32154;47.160;8.120;2022-08-30T10:45:13;95941.59;;;33.74;34.11
46456;BME280;32154;47.160;8.120;2022-08-30T10:50:27;95937.28;;;33.21;35.44
46456;BME280;32154;47.160;8.120;2022-08-30T10:55:51;95932.28;;;35.26;33.42
46456;BME280;32154;47.160;8.120;2022-08-30T11:18:01;95915.03;;;37.19;30.00
46456;BME280;32154;47.160;8.120;2022-08-30T11:33:56;95903.59;;;36.79;29.57
46456;BME280;32154;47.160;8.120;2022-08-30T11:39:11;95904.25;;;35.64;31.72
46456;BME280;32154;47.160;8.120;2022-08-30T11:44:30;95895.22;;;35.64;32.46
46456;BME280;32154;47.160;8.120;2022-08-30T11:50:28;95891.91;;;35.62;31.61
46456;BME280;32154;47.160;8.120;2022-08-30T12:06:51;95883.19;;;35.84;31.60
46456;BME280;32154;47.160;8.120;2022-08-30T12:17:56;95864.28;;;35.58;32.61
46456;BME280;32154;47.160;8.120;2022-08-30T12:23:19;95860.03;;;35.17;31.90
46456;BME280;32154;47.160;8.120;2022-08-30T12:28:22;95845.94;;;35.53;32.59
46456;BME280;32154;47.160;8.120;2022-08-30T12:33:47;95842.75;;;35.70;32.48
46456;BME280;32154;47.160;8.120;2022-08-30T12:39:16;95844.13;;;35.19;34.62
46456;BME280;32154;47.160;8.120;2022-08-30T12:44:24;95834.22;;;34.14;36.00
46456;BME280;32154;47.160;8.120;2022-08-30T12:49:30;95822.78;;;33.25;38.07
46456;BME280;32154;47.160;8.120;2022-08-30T12:54:38;95833.34;;;33.68;36.58
46456;BME280;32154;47.160;8.120;2022-08-30T12:59:46;95831.25;;;33.49;36.29
46456;BME280;32154;47.160;8.120;2022-08-30T13:11:07;95804.31;;;32.91;37.59
46456;BME280;32154;47.160;8.120;2022-08-30T13:26:31;95791.41;;;32.08;40.77
46456;BME280;32154;47.160;8.120;2022-08-30T13:31:52;95782.91;;;31.79;41.50
46456;BME280;32154;47.160;8.120;2022-08-30T13:36:56;95776.13;;;31.87;40.96
46456;BME280;32154;47.160;8.120;2022-08-30T13:42:17;95771.13;;;31.73;41.25
46456;BME280;32154;47.160;8.120;2022-08-30T13:47:37;95758.69;;;31.19;43.35
46456;BME280;32154;47.160;8.120;2022-08-30T13:52:40;95759.53;;;31.93;40.59
46456;BME280;32154;47.160;8.120;2022-08-30T13:58:01;95750.56;;;32.40;37.57
46456;BME280;32154;47.160;8.120;2022-08-30T14:03:03;95757.63;;;32.92;38.19
46456;BME280;32154;47.160;8.120;2022-08-30T14:08:07;95757.63;;;32.98;36.27
46456;BME280;32154;47.160;8.120;2022-08-30T14:13:33;95763.03;;;33.13;34.89
46456;BME280;32154;47.160;8.120;2022-08-30T14:18:35;95756.03;;;33.57;34.85
46456;BME280;32154;47.160;8.120;2022-08-30T14:23:59;95755.38;;;33.81;34.28
46456;BME280;32154;47.160;8.120;2022-08-30T14:29:05;95746.16;;;34.12;32.63
46456;BME280;32154;47.160;8.120;2022-08-30T14:34:10;95729.47;;;34.43;33.36
46456;BME280;32154;47.160;8.120;2022-08-30T14:39:16;95730.66;;;34.02;33.32
46456;BME280;32154;47.160;8.120;2022-08-30T14:44:38;95728.81;;;33.31;35.73
46456;BME280;32154;47.160;8.120;2022-08-30T14:50:18;95725.81;;;33.83;35.33
46456;BME280;32154;47.160;8.120;2022-08-30T14:55:40;95726.00;;;33.97;36.30
46456;BME280;32154;47.160;8.120;2022-08-30T15:00:52;95723.91;;;34.24;35.50
46456;BME280;32154;47.160;8.120;2022-08-30T15:05:57;95729.44;;;34.48;31.98
46456;BME280;32154;47.160;8.120;2022-08-30T15:11:05;95721.25;;;34.13;33.13
46456;BME280;32154;47.160;8.120;2022-08-30T15:16:29;95720.81;;;33.96;35.41
46456;BME280;32154;47.160;8.120;2022-08-30T15:21:57;95711.78;;;34.00;33.11
46456;BME280;32154;47.160;8.120;2022-08-30T15:27:21;95723.56;;;33.40;34.98
46456;BME280;32154;47.160;8.120;2022-08-30T15:32:42;95726.66;;;33.84;34.68
46456;BME280;32154;47.160;8.120;2022-08-30T15:37:44;95711.47;;;32.96;35.89
46456;BME280;32154;47.160;8.120;2022-08-30T15:43:05;95706.28;;;32.79;37.50
46456;BME280;32154;47.160;8.120;2022-08-30T15:48:08;95697.06;;;32.18;37.77
46456;BME280;32154;47.160;8.120;2022-08-30T15:53:29;95712.34;;;29.40;42.44
46456;BME280;32154;47.160;8.120;2022-08-30T15:58:33;95713.75;;;29.20;41.54
46456;BME280;32154;47.160;8.120;2022-08-30T16:03:57;95750.16;;;27.82;45.05
46456;BME280;32154;47.160;8.120;2022-08-30T16:09:00;95787.22;;;26.52;46.85
46456;BME280;32154;47.160;8.120;2022-08-30T16:14:21;95772.53;;;26.05;46.42
46456;BME280;32154;47.160;8.120;2022-08-30T16:19:41;95812.31;;;25.67;46.65
46456;BME280;32154;47.160;8.120;2022-08-30T16:24:44;95825.75;;;25.56;44.87
46456;BME280;32154;47.160;8.120;2022-08-30T16:29:50;95831.19;;;25.30;45.54
46456;BME280;32154;47.160;8.120;2022-08-30T16:35:11;95835.06;;;24.21;50.11
46456;BME280;32154;47.160;8.120;2022-08-30T16:40:13;95854.03;;;24.00;51.21
46456;BME280;32154;47.160;8.120;2022-08-30T16:45:16;95854.88;;;23.49;51.98
46456;BME280;32154;47.160;8.120;2022-08-30T16:50:40;95847.84;;;23.48;51.92
46456;BME280;32154;47.160;8.120;2022-08-30T16:56:06;95843.44;;;22.67;54.46
46456;BME280;32154;47.160;8.120;2022-08-30T17:01:09;95845.28;;;22.80;53.94
46456;BME280;32154;47.160;8.120;2022-08-30T17:06:12;95854.75;;;23.03;52.90
46456;BME280;32154;47.160;8.120;2022-08-30T17:11:14;95872.38;;;22.85;53.46
46456;BME280;32154;47.160;8.120;2022-08-30T17:16:19;95903.56;;;23.93;54.01
46456;BME280;32154;47.160;8.120;2022-08-30T17:21:46;95919.84;;;23.66;54.12
46456;BME280;32154;47.160;8.120;2022-08-30T17:26:49;95932.69;;;24.16;55.55
46456;BME280;32154;47.160;8.120;2022-08-30T17:31:51;95945.75;;;23.53;56.16
46456;BME280;32154;47.160;8.120;2022-08-30T17:36:54;95960.25;;;22.98;57.72
46456;BME280;32154;47.160;8.120;2022-08-30T17:41:57;95964.75;;;22.57;60.79
46456;BME280;32154;47.160;8.120;2022-08-30T17:47:20;95966.97;;;21.85;63.26
46456;BME280;32154;47.160;8.120;2022-08-30T17:52:22;95979.38;;;21.51;64.65
46456;BME280;32154;47.160;8.120;2022-08-30T17:57:44;95960.50;;;21.37;65.23
46456;BME280;32154;47.160;8.120;2022-08-30T18:02:46;95959.75;;;21.22;69.59
46456;BME280;32154;47.160;8.120;2022-08-30T18:07:49;95953.53;;;21.14;69.57
46456;BME280;32154;47.160;8.120;2022-08-30T18:12:52;95937.00;;;21.11;70.31
46456;BME280;32154;47.160;8.120;2022-08-30T18:18:14;95908.78;;;20.86;71.87
46456;BME280;32154;47.160;8.120;2022-08-30T18:23:17;95908.81;;;20.64;72.34
46456;BME280;32154;47.160;8.120;2022-08-30T18:28:25;95909.38;;;20.82;71.10
46456;BME280;32154;47.160;8.120;2022-08-30T18:33:46;95907.13;;;20.85;72.24
46456;BME280;32154;47.160;8.120;2022-08-30T18:39:07;95912.59;;;20.99;69.60
46456;BME280;32154;47.160;8.120;2022-08-30T18:44:10;95903.41;;;20.86;70.24
46456;BME280;32154;47.160;8.120;2022-08-30T18:49:30;95911.09;;;21.18;68.62
46456;BME280;32154;47.160;8.120;2022-08-30T18:54:40;95946.66;;;21.33;67.17
46456;BME280;32154;47.160;8.120;2022-08-30T18:59:43;95956.84;;;21.45;66.02
46456;BME280;32154;47.160;8.120;2022-08-30T19:05:04;95974.50;;;21.32;67.76
46456;BME280;32154;47.160;8.120;2022-08-30T19:10:26;95999.00;;;21.58;65.76
46456;BME280;32154;47.160;8.120;2022-08-30T19:15:46;96010.63;;;22.00;62.08
46456;BME280;32154;47.160;8.120;2022-08-30T19:20:52;96033.72;;;22.37;62.98
46456;BME280;32154;47.160;8.120;2022-08-30T19:26:13;96038.06;;;22.38;65.65
46456;BME280;32154;47.160;8.120;2022-08-30T19:31:16;96035.44;;;22.51;63.91
46456;BME280;32154;47.160;8.120;2022-08-30T19:36:37;96043.81;;;21.86;66.08
46456;BME280;32154;47.160;8.120;2022-08-30T19:41:40;96053.88;;;21.27;68.08
46456;BME280;32154;47.160;8.120;2022-08-30T19:47:02;96070.19;;;21.54;67.57
46456;BME280;32154;47.160;8.120;2022-08-30T19:52:23;96081.19;;;21.66;66.79
46456;BME280;32154;47.160;8.120;2022-08-30T19:57:44;96081.09;;;21.24;68.54
46456;BME280;32154;47.160;8.120;2022-08-30T20:03:07;96076.97;;;21.28;68.65
46456;BME280;32154;47.160;8.120;2022-08-30T20:08:10;96065.06;;;21.30;68.91
46456;BME280;32154;47.160;8.120;2022-08-30T20:13:12;96074.88;;;21.01;69.14
46456;BME280;32154;47.160;8.120;2022-08-30T20:18:15;96076.59;;;21.31;68.44
46456;BME280;32154;47.160;8.120;2022-08-30T20:23:36;96065.34;;;21.20;68.48
46456;BME280;32154;47.160;8.120;2022-08-30T20:28:41;96076.88;;;21.14;69.46
46456;BME280;32154;47.160;8.120;2022-08-30T20:33:43;96061.91;;;21.48;68.77
46456;BME280;32154;47.160;8.120;2022-08-30T20:38:46;96066.31;;;21.63;65.84
46456;BME280;32154;47.160;8.120;2022-08-30T20:44:07;96058.19;;;21.50;67.45
46456;BME280;32154;47.160;8.120;2022-08-30T20:49:13;96043.16;;;21.27;65.81
46456;BME280;32154;47.160;8.120;2022-08-30T20:54:33;96023.09;;;21.23;66.60
46456;BME280;32154;47.160;8.120;2022-08-30T20:59:55;96016.63;;;21.67;66.26
46456;BME280;32154;47.160;8.120;2022-08-30T21:05:02;96012.38;;;21.23;67.00
46456;BME280;32154;47.160;8.120;2022-08-30T21:10:05;96015.72;;;21.60;65.56
46456;BME280;32154;47.160;8.120;2022-08-30T21:15:08;95999.88;;;21.65;65.18
46456;BME280;32154;47.160;8.120;2022-08-30T21:20:49;95999.00;;;21.86;66.13
46456;BME280;32154;47.160;8.120;2022-08-30T21:25:51;95986.31;;;22.22;65.31
46456;BME280;32154;47.160;8.120;2022-08-30T21:31:27;95983.97;;;21.99;63.48
46456;BME280;32154;47.160;8.120;2022-08-30T21:36:29;95987.59;;;21.78;66.08
46456;BME280;32154;47.160;8.120;2022-08-30T21:41:34;95988.91;;;21.95;66.34
46456;BME280;32154;47.160;8.120;2022-08-30T21:46:55;95983.22;;;22.18;63.45
46456;BME280;32154;47.160;8.120;2022-08-30T21:51:57;95980.72;;;21.68;67.10
46456;BME280;32154;47.160;8.120;2022-08-30T21:57:01;95987.13;;;21.67;68.11
46456;BME280;32154;47.160;8.120;2022-08-30T22:02:03;95984.44;;;21.67;66.98
46456;BME280;32154;47.160;8.120;2022-08-30T22:07:06;95978.56;;;21.57;68.08
46456;BME280;32154;47.160;8.120;2022-08-30T22:12:09;95979.59;;;21.91;66.17
46456;BME280;32154;47.160;8.120;2022-08-30T22:17:11;95974.47;;;21.61;67.85
46456;BME280;32154;47.160;8.120;2022-08-30T22:22:13;95978.75;;;21.48;67.76
46456;BME280;32154;47.160;8.120;2022-08-30T22:27:16;95986.72;;;21.42;67.65
46456;BME280;32154;47.160;8.120;2022-08-30T22:32:18;95983.03;;;21.43;67.41
46456;BME280;32154;47.160;8.120;2022-08-30T22:37:21;95985.31;;;21.74;68.01
46456;BME280;32154;47.160;8.120;2022-08-30T22:42:42;95978.41;;;21.65;67.42
46456;BME280;32154;47.160;8.120;2022-08-30T22:47:49;95981.69;;;21.60;67.76
46456;BME280;32154;47.160;8.120;2022-08-30T22:52:52;95982.72;;;21.31;68.73
46456;BME280;32154;47.160;8.120;2022-08-30T22:57:54;95977.66;;;21.43;67.47
46456;BME280;32154;47.160;8.120;2022-08-30T23:02:56;95971.91;;;21.46;67.40
46456;BME280;32154;47.160;8.120;2022-08-30T23:07:58;95975.06;;;21.56;66.72
46456;BME280;32154;47.160;8.120;2022-08-30T23:13:19;95988.53;;;21.63;67.82
46456;BME280;32154;47.160;8.120;2022-08-30T23:18:22;95985.53;;;21.80;66.28
46456;BME280;32154;47.160;8.120;2022-08-30T23:23:24;95978.72;;;21.84;67.20
46456;BME280;32154;47.160;8.120;2022-08-30T23:28:45;95983.25;;;21.76;65.62
46456;BME280;32154;47.160;8.120;2022-08-30T23:33:47;95989.03;;;21.45;66.87
46456;BME280;32154;47.160;8.120;2022-08-30T23:38:49;95988.72;;;21.61;66.49
46456;BME280;32154;47.160;8.120;2022-08-30T23:44:10;95981.66;;;21.89;65.72
46456;BME280;32154;47.160;8.120;2022-08-30T23:49:12;95978.97;;;21.89;65.53
46456;BME280;32154;47.160;8.120;2022-08-30T23:54:15;95972.63;;;21.97;66.13
46456;BME280;32154;47.160;8.120;2022-08-30T23:59:17;95965.81;;;22.08;66.19
